McCutchanville, Indiana
Current Conditions -  °F | °C
As of 3:54 AM on Saturday 25 Oct 2014 (Local Time) from KEVV Reporting Station
Overcast Overcast  
Wind Chill: 57°   Ceiling: 6000
Heat Index: 57°   Visibility: 9mi
Dew Point: 53°   Wind: 7mph
Humidity: 87%   Direction: 210°SSW
Pressure: 30.01"   Gusts: NA
Location:  38.1195°N, 87.5368°W
Report Text: KEVV 250854Z AUTO 21006KT 9SM FEW046 OVC060 14/12 A3001 RMK AO2 SLP162 T01390117 58013
Loading
Personal Weather Stations






























Interactive Weather Map
Tropical Storm Tracking
New forecast layout! Learn more

10-Day Weather Forecast

Advertisements
Track Severe Weather on mobile